Observation data for Hereford on 06/25/2019      Previous  Date  Next       Current Mesonet Observations  Soil Data  Daily Summary Page  Observations in Plain Language
KHES 250500Z 15009G14KT 21/14 A2999 RMK A01 T02140143  RH  067%=      5-min Rain = 0
KHES 250505Z 15010KT 21/14 A2999 RMK A01 T02130143  RH  067%=      5-min Rain = 0
KHES 250510Z 15009KT 21/14 A2999 RMK A01 T02110142  RH  067%=      5-min Rain = 0
KHES 250515Z 15009KT 21/14 A30 RMK A01 T02100142  RH  068%=      5-min Rain = 0
KHES 250520Z 15008KT 21/14 A30 RMK A01 T02080143  RH  069%=      5-min Rain = 0
KHES 250525Z 15009KT 21/14 A30 RMK A01 T02070144  RH  070%=      5-min Rain = 0
KHES 250530Z 14009G14KT 21/15 A30 RMK A01 T02070146  RH  071%=      5-min Rain = 0
KHES 250535Z 14010G15KT 21/15 A30 RMK A01 T02070148  RH  072%=      5-min Rain = 0
KHES 250540Z 15009G15KT 21/15 A30 RMK A01 T02080150  RH  073%=      5-min Rain = 0
KHES 250545Z 14011KT 21/15 A30 RMK A01 T02090151  RH  072%=      5-min Rain = 0
KHES 250550Z 14010G15KT 21/15 A30 RMK A01 T02100152  RH  073%=      5-min Rain = 0
KHES 250555Z 15011G16KT 21/15 A30 RMK A01 T02110154  RH  073%=      5-min Rain = 0
KHES 250600Z 15011G16KT 21/16 A2999 RMK A01 T02110155  RH  074%=      5-min Rain = 0
KHES 250605Z 15012G17KT 21/16 A2999 RMK A01 T02120157  RH  075%=      5-min Rain = 0
KHES 250610Z 15011G17KT 21/16 A2999 RMK A01 T02110160  RH  076%=      5-min Rain = 0
KHES 250615Z 16012G18KT 21/16 A2999 RMK A01 T02110162  RH  077%=      5-min Rain = 0
KHES 250620Z 15009G14KT 21/16 A2999 RMK A01 T02100163  RH  078%=      5-min Rain = 0
KHES 250625Z 15011KT 21/17 A2999 RMK A01 T02100165  RH  079%=      5-min Rain = 0
KHES 250630Z 15010G15KT 21/17 A2999 RMK A01 T02100166  RH  080%=      5-min Rain = 0
KHES 250635Z 15011G16KT 21/17 A2999 RMK A01 T02090167  RH  081%=      5-min Rain = 0
KHES 250640Z 15010KT 21/17 A2999 RMK A01 T02080168  RH  082%=      5-min Rain = 0
KHES 250645Z 15010KT 21/17 A2999 RMK A01 T02080169  RH  082%=      5-min Rain = 0
KHES 250650Z 16010KT 21/17 A2999 RMK A01 T02070169  RH  083%=      5-min Rain = 0
KHES 250655Z 16008KT 21/17 A2999 RMK A01 T02060170  RH  084%=      5-min Rain = 0
KHES 250700Z 16009KT 20/17 A2999 RMK A01 T02040170  RH  085%=      5-min Rain = 0
KHES 250705Z 17007KT 20/17 A2999 RMK A01 T02030170  RH  086%=      5-min Rain = 0
KHES 250710Z 17006KT 20/17 A2999 RMK A01 T02040171  RH  086%=      5-min Rain = 0
KHES 250715Z 17006KT 21/17 A2999 RMK A01 T02050173  RH  086%=      5-min Rain = 0
KHES 250720Z 17005KT 21/17 A2999 RMK A01 T02050174  RH  086%=      5-min Rain = 0
KHES 250725Z 17005KT 21/18 A30 RMK A01 T02070176  RH  087%=      5-min Rain = 0
KHES 250730Z 18007KT 21/18 A30 RMK A01 T02080179  RH  088%=      5-min Rain = 0
KHES 250735Z 17007G12KT 21/18 A30 RMK A01 T02100180  RH  088%=      5-min Rain = 0
KHES 250740Z 18007KT 21/18 A30 RMK A01 T02090180  RH  088%=      5-min Rain = 0
KHES 250745Z 18008KT 21/18 A30 RMK A01 T02080179  RH  088%=      5-min Rain = 0
KHES 250750Z 18009KT 21/18 A30 RMK A01 T02090178  RH  087%=      5-min Rain = 0
KHES 250755Z 18008KT 21/18 A30 RMK A01 T02080177  RH  086%=      5-min Rain = 0
KHES 250800Z 17008KT 21/18 A30 RMK A01 T02070176  RH  087%=      5-min Rain = 0
KHES 250805Z 17008G13KT 21/18 A30 RMK A01 T02070176  RH  087%=      5-min Rain = 0
KHES 250810Z 18007KT 21/18 A30 RMK A01 T02060175  RH  087%=      5-min Rain = 0
KHES 250815Z 18006KT 20/17 A30 RMK A01 T02030174  RH  088%=      5-min Rain = 0
KHES 250820Z 19005KT 20/17 A30 RMK A01 T02020174  RH  088%=      5-min Rain = 0
KHES 250825Z 18006KT 20/17 A30 RMK A01 T02000173  RH  088%=      5-min Rain = 0
KHES 250830Z 18006KT 20/17 A30 RMK A01 T02000172  RH  088%=      5-min Rain = 0
KHES 250835Z 19008KT 20/17 A30 RMK A01 T02000170  RH  087%=      5-min Rain = 0
KHES 250840Z 19007KT 20/17 A30 RMK A01 T02000169  RH  086%=      5-min Rain = 0
KHES 250845Z 19007KT 20/17 A30 RMK A01 T01970167  RH  087%=      5-min Rain = 0
KHES 250850Z 19007KT 20/17 A30 RMK A01 T01950166  RH  088%=      5-min Rain = 0
KHES 250855Z 19008KT 20/16 A2999 RMK A01 T01950164  RH  087%=      5-min Rain = 0
KHES 250900Z 20008KT 20/16 A2999 RMK A01 T01970162  RH  084%=      5-min Rain = 0
KHES 250905Z 20009KT 20/16 A2999 RMK A01 T01970159  RH  082%=      5-min Rain = 0
KHES 250910Z 20007KT 20/16 A2999 RMK A01 T01950158  RH  083%=      5-min Rain = 0
KHES 250915Z 19006KT 19/16 A2999 RMK A01 T01930157  RH  084%=      5-min Rain = 0
KHES 250920Z 19006KT 19/16 A2999 RMK A01 T01910157  RH  085%=      5-min Rain = 0
KHES 250925Z 19007KT 19/16 A2999 RMK A01 T01890157  RH  085%=      5-min Rain = 0
KHES 250930Z 19007KT 19/16 A2999 RMK A01 T01890156  RH  085%=      5-min Rain = 0
KHES 250935Z 19006KT 19/16 A2999 RMK A01 T01880155  RH  085%=      5-min Rain = 0
KHES 250940Z 20006KT 19/15 A2999 RMK A01 T01860154  RH  085%=      5-min Rain = 0
KHES 250945Z 19007KT 19/15 A2999 RMK A01 T01880154  RH  084%=      5-min Rain = 0
KHES 250950Z 20006KT 19/15 A2999 RMK A01 T01870152  RH  084%=      5-min Rain = 0
KHES 250955Z 19007KT 19/15 A2999 RMK A01 T01870150  RH  082%=      5-min Rain = 0
KHES 251000Z 19007KT 19/15 A2999 RMK A01 T01870148  RH  081%=      5-min Rain = 0
KHES 251005Z 20006KT 19/15 A30 RMK A01 T01870146  RH  081%=      5-min Rain = 0
KHES 251010Z 20006KT 19/15 A30 RMK A01 T01860145  RH  081%=      5-min Rain = 0
KHES 251015Z 20006KT 18/14 A30 RMK A01 T01840144  RH  081%=      5-min Rain = 0
KHES 251020Z 20005KT 18/14 A30 RMK A01 T01840143  RH  080%=      5-min Rain = 0
KHES 251025Z 19005KT 18/14 A30 RMK A01 T01810141  RH  080%=      5-min Rain = 0
KHES 251030Z 19004KT 18/14 A3001 RMK A01 T01780138  RH  081%=      5-min Rain = 0
KHES 251035Z 20004KT 18/14 A3001 RMK A01 T01760137  RH  081%=      5-min Rain = 0
KHES 251040Z 21006KT 17/14 A3001 RMK A01 T01730135  RH  082%=      5-min Rain = 0
KHES 251045Z 22006KT 17/13 A3001 RMK A01 T01730134  RH  081%=      5-min Rain = 0
KHES 251050Z 22007KT 17/13 A3001 RMK A01 T01740133  RH  080%=      5-min Rain = 0
KHES 251055Z 22008KT 18/13 A3001 RMK A01 T01750131  RH  079%=      5-min Rain = 0
KHES 251100Z 22008KT 18/13 A3001 RMK A01 T01750130  RH  078%=      5-min Rain = 0
KHES 251105Z 22008KT 17/13 A3001 RMK A01 T01730130  RH  079%=      5-min Rain = 0
KHES 251110Z 22008KT 17/13 A3001 RMK A01 T01720130  RH  080%=      5-min Rain = 0
KHES 251115Z 22008KT 17/13 A3001 RMK A01 T01700130  RH  080%=      5-min Rain = 0
KHES 251120Z 21008KT 17/13 A3002 RMK A01 T01690130  RH  081%=      5-min Rain = 0
KHES 251125Z 21009KT 17/13 A3002 RMK A01 T01700129  RH  080%=      5-min Rain = 0
KHES 251130Z 21008KT 17/13 A3002 RMK A01 T01690128  RH  080%=      5-min Rain = 0
KHES 251135Z 21009KT 17/13 A3002 RMK A01 T01680127  RH  080%=      5-min Rain = 0
KHES 251140Z 21008KT 17/13 A3002 RMK A01 T01680127  RH  079%=      5-min Rain = 0
KHES 251145Z 21008KT 17/13 A3002 RMK A01 T01680126  RH  079%=      5-min Rain = 0
KHES 251150Z 22008KT 17/13 A3002 RMK A01 T01680126  RH  079%=      5-min Rain = 0
KHES 251155Z 22009KT 17/13 A3003 RMK A01 T01670126  RH  079%=      5-min Rain = 0
KHES 251200Z 22008KT 17/13 A3003 RMK A01 T01690125  RH  079%=      5-min Rain = 0
KHES 251205Z 22008KT 17/13 A3003 RMK A01 T01680126  RH  079%=      5-min Rain = 0
KHES 251210Z 21008KT 17/13 A3003 RMK A01 T01680126  RH  079%=      5-min Rain = 0
KHES 251215Z 21008KT 17/13 A3003 RMK A01 T01700127  RH  079%=      5-min Rain = 0
KHES 251220Z 21008KT 17/13 A3003 RMK A01 T01710127  RH  079%=      5-min Rain = 0
KHES 251225Z 21008KT 17/13 A3003 RMK A01 T01710127  RH  078%=      5-min Rain = 0
KHES 251230Z 20008KT 17/13 A3003 RMK A01 T01720127  RH  078%=      5-min Rain = 0
KHES 251235Z 21008KT 17/13 A3003 RMK A01 T01740128  RH  077%=      5-min Rain = 0
KHES 251240Z 20008KT 18/13 A3003 RMK A01 T01760128  RH  077%=      5-min Rain = 0
KHES 251245Z 20008KT 18/13 A3003 RMK A01 T01780130  RH  076%=      5-min Rain = 0
KHES 251250Z 21008KT 18/13 A3003 RMK A01 T01810130  RH  075%=      5-min Rain = 0
KHES 251255Z 21008KT 18/13 A3003 RMK A01 T01840131  RH  074%=      5-min Rain = 0
KHES 251300Z 22008KT 19/13 A3003 RMK A01 T01870132  RH  073%=      5-min Rain = 0
KHES 251305Z 22008KT 19/13 A3003 RMK A01 T01900133  RH  073%=      5-min Rain = 0
KHES 251310Z 22008KT 19/13 A3003 RMK A01 T01930134  RH  072%=      5-min Rain = 0
KHES 251315Z 22008KT 20/14 A3003 RMK A01 T01970135  RH  070%=      5-min Rain = 0
KHES 251320Z 23009KT 20/14 A3003 RMK A01 T02020137  RH  069%=      5-min Rain = 0
KHES 251325Z 23008KT 21/14 A3004 RMK A01 T02060138  RH  068%=      5-min Rain = 0
KHES 251330Z 23009KT 21/14 A3004 RMK A01 T02080139  RH  067%=      5-min Rain = 0
KHES 251335Z 23009KT 21/14 A3004 RMK A01 T02110140  RH  067%=      5-min Rain = 0
KHES 251340Z 23009KT 21/14 A3004 RMK A01 T02130141  RH  066%=      5-min Rain = 0
KHES 251345Z 23009KT 22/14 A3004 RMK A01 T02180142  RH  065%=      5-min Rain = 0
KHES 251350Z 23010KT 22/14 A3004 RMK A01 T02190142  RH  064%=      5-min Rain = 0
KHES 251355Z 24010KT 22/14 A3004 RMK A01 T02240142  RH  062%=      5-min Rain = 0
KHES 251400Z 23011KT 23/14 A3004 RMK A01 T02290141  RH  060%=      5-min Rain = 0
KHES 251405Z 24011G17KT 23/14 A3004 RMK A01 T02320141  RH  059%=      5-min Rain = 0
KHES 251410Z 24011KT 24/14 A3004 RMK A01 T02360141  RH  058%=      5-min Rain = 0
KHES 251415Z 23013G19KT 24/14 A3004 RMK A01 T02380140  RH  056%=      5-min Rain = 0
KHES 251420Z 23013KT 24/14 A3004 RMK A01 T02410140  RH  056%=      5-min Rain = 0
KHES 251425Z 23014KT 24/14 A3004 RMK A01 T02410139  RH  055%=      5-min Rain = 0
KHES 251430Z 23012G17KT 24/14 A3004 RMK A01 T02440140  RH  055%=      5-min Rain = 0
KHES 251435Z 23013G19KT 25/14 A3004 RMK A01 T02470140  RH  054%=      5-min Rain = 0
KHES 251440Z 23014KT 25/14 A3004 RMK A01 T02480138  RH  052%=      5-min Rain = 0
KHES 251445Z 22013KT 25/14 A3004 RMK A01 T02520138  RH  051%=      5-min Rain = 0
KHES 251450Z 22013KT 25/14 A3004 RMK A01 T02540136  RH  050%=      5-min Rain = 0
KHES 251455Z 22012KT 26/14 A3004 RMK A01 T02560136  RH  050%=      5-min Rain = 0
KHES 251500Z 23011KT 26/14 A3004 RMK A01 T02600137  RH  049%=      5-min Rain = 0
KHES 251505Z 23012KT 26/14 A3004 RMK A01 T02620137  RH  048%=      5-min Rain = 0
KHES 251510Z 23011KT 27/14 A3005 RMK A01 T02650137  RH  047%=      5-min Rain = 0
KHES 251515Z 22011G16KT 27/14 A3005 RMK A01 T02660138  RH  047%=      5-min Rain = 0
KHES 251520Z 22011KT 27/14 A3005 RMK A01 T02680138  RH  047%=      5-min Rain = 0
KHES 251525Z 21012KT 27/14 A3004 RMK A01 T02680137  RH  046%=      5-min Rain = 0
KHES 251530Z 22012KT 27/14 A3004 RMK A01 T02730137  RH  045%=      5-min Rain = 0
KHES 251535Z 23011KT 28/14 A3004 RMK A01 T02750137  RH  044%=      5-min Rain = 0
KHES 251540Z 23012KT 28/14 A3004 RMK A01 T02760136  RH  044%=      5-min Rain = 0
KHES 251545Z 23013KT 28/13 A3004 RMK A01 T02790134  RH  043%=      5-min Rain = 0
KHES 251550Z 23013G18KT 28/13 A3004 RMK A01 T02810134  RH  042%=      5-min Rain = 0
KHES 251555Z 23011KT 28/14 A3004 RMK A01 T02840136  RH  042%=      5-min Rain = 0
KHES 251600Z 23010G15KT 29/14 A3003 RMK A01 T02880137  RH  041%=      5-min Rain = 0
KHES 251605Z 23011G16KT 29/14 A3003 RMK A01 T02910135  RH  040%=      5-min Rain = 0
KHES 251610Z 23012KT 29/13 A3003 RMK A01 T02930133  RH  039%=      5-min Rain = 0
KHES 251615Z 23012KT 29/13 A3003 RMK A01 T02930133  RH  039%=      5-min Rain = 0
KHES 251620Z 23010KT 30/14 A3003 RMK A01 T02970135  RH  039%=      5-min Rain = 0
KHES 251625Z 22011G17KT 30/13 A3003 RMK A01 T02970134  RH  038%=      5-min Rain = 0
KHES 251630Z 24011G16KT 30/13 A3004 RMK A01 T02980131  RH  037%=      5-min Rain = 0
KHES 251635Z 22011G17KT 30/13 A3004 RMK A01 T03000132  RH  037%=      5-min Rain = 0
KHES 251640Z 22011G16KT 30/13 A3004 RMK A01 T03000128  RH  036%=      5-min Rain = 0
KHES 251645Z 21011KT 31/13 A3003 RMK A01 T03050129  RH  035%=      5-min Rain = 0
KHES 251650Z 23011G16KT 31/13 A3004 RMK A01 T03080128  RH  035%=      5-min Rain = 0
KHES 251655Z 22011G16KT 31/12 A3004 RMK A01 T03100124  RH  033%=      5-min Rain = 0
KHES 251700Z 24014KT 31/12 A3003 RMK A01 T03140116  RH  031%=      5-min Rain = 0
KHES 251705Z 23014KT 31/11 A3003 RMK A01 T03140112  RH  030%=      5-min Rain = 0
KHES 251710Z 23012G17KT 32/11 A3003 RMK A01 T03160114  RH  030%=      5-min Rain = 0
KHES 251715Z 22012KT 32/12 A3003 RMK A01 T03160115  RH  030%=      5-min Rain = 0
KHES 251720Z 23014KT 32/11 A3003 RMK A01 T03190110  RH  029%=      5-min Rain = 0
KHES 251725Z 23012G17KT 32/11 A3003 RMK A01 T03220106  RH  027%=      5-min Rain = 0
KHES 251730Z 23013G19KT 32/11 A3003 RMK A01 T03230108  RH  028%=      5-min Rain = 0
KHES 251735Z 22011G16KT 32/11 A3003 RMK A01 T03240106  RH  027%=      5-min Rain = 0
KHES 251740Z 23011KT 33/10 A3003 RMK A01 T03250095  RH  025%=      5-min Rain = 0
KHES 251745Z 22011G19KT 33/10 A3003 RMK A01 T03280097  RH  025%=      5-min Rain = 0
KHES 251750Z 20008G14KT 33/10 A3003 RMK A01 T03250098  RH  026%=      5-min Rain = 0
KHES 251755Z 22011G17KT 33/09 A3003 RMK A01 T03330092  RH  024%=      5-min Rain = 0
KHES 251800Z 22009KT 33/09 A3002 RMK A01 T03290091  RH  024%=      5-min Rain = 0
KHES 251805Z 22011KT 33/08 A3002 RMK A01 T03330084  RH  022%=      5-min Rain = 0
KHES 251810Z 22008KT 33/09 A3002 RMK A01 T03290087  RH  023%=      5-min Rain = 0
KHES 251815Z 24012KT 33/09 A3002 RMK A01 T03330085  RH  022%=      5-min Rain = 0
KHES 251820Z 22011G16KT 33/08 A3002 RMK A01 T03310079  RH  022%=      5-min Rain = 0
KHES 251825Z 22010KT 33/09 A3002 RMK A01 T03340087  RH  022%=      5-min Rain = 0
KHES 251830Z 23010KT 33/08 A3001 RMK A01 T03330084  RH  022%=      5-min Rain = 0
KHES 251835Z 22010KT 33/08 A3001 RMK A01 T03330083  RH  022%=      5-min Rain = 0
KHES 251840Z 22012KT 34/08 A3001 RMK A01 T03390075  RH  020%=      5-min Rain = 0
KHES 251845Z 18009G14KT 34/07 A3001 RMK A01 T03370071  RH  020%=      5-min Rain = 0
KHES 251850Z 20008G13KT 34/08 A3001 RMK A01 T03370079  RH  021%=      5-min Rain = 0
KHES 251855Z 18010KT 34/07 A3001 RMK A01 T03440071  RH  019%=      5-min Rain = 0
KHES 251900Z 17011G17KT 34/07 A3001 RMK A01 T03410066  RH  019%=      5-min Rain = 0
KHES 251905Z 18010G16KT 34/05 A3001 RMK A01 T03430054  RH  017%=      5-min Rain = 0
KHES 251910Z 17009KT 35/05 A30 RMK A01 T03450052  RH  017%=      5-min Rain = 0
KHES 251915Z 16008KT 34/04 A30 RMK A01 T03430041  RH  015%=      5-min Rain = 0
KHES 251920Z 20008G14KT 35/02 A30 RMK A01 T03460022  RH  013%=      5-min Rain = 0
KHES 251925Z 23007G12KT 34/04 A30 RMK A01 T03400040  RH  016%=      5-min Rain = 0
KHES 251930Z 21009G14KT 35/03 A30 RMK A01 T03450034  RH  015%=      5-min Rain = 0
KHES 251935Z 24007G13KT 35/04 A2999 RMK A01 T03520038  RH  014%=      5-min Rain = 0
KHES 251940Z 18007G12KT 35/05 A2999 RMK A01 T03510054  RH  016%=      5-min Rain = 0
KHES 251945Z 18011G18KT 35/05 A2999 RMK A01 T03520053  RH  016%=      5-min Rain = 0
KHES 251950Z 20008G15KT 34/03 A2999 RMK A01 T03410032  RH  015%=      5-min Rain = 0
KHES 251955Z 20009KT 34/04 A2999 RMK A01 T03370039  RH  016%=      5-min Rain = 0
KHES 252000Z 18009G16KT 33/04 A2999 RMK A01 T03320036  RH  016%=      5-min Rain = 0
KHES 252005Z 17008KT 33/04 A2999 RMK A01 T03290035  RH  016%=      5-min Rain = 0
KHES 252010Z 17007KT 34/04 A2998 RMK A01 T03360036  RH  015%=      5-min Rain = 0
KHES 252015Z 17010G16KT 34/04 A2998 RMK A01 T03370035  RH  015%=      5-min Rain = 0
KHES 252020Z 16009KT 35/03 A2998 RMK A01 T03460028  RH  014%=      5-min Rain = 0
KHES 252025Z 18008KT 34/03 A2998 RMK A01 T03370034  RH  015%=      5-min Rain = 0
KHES 252030Z 16007KT 34/05 A2998 RMK A01 T03380049  RH  017%=      5-min Rain = 0
KHES 252035Z 15009G14KT 34/04 A2997 RMK A01 T03440036  RH  015%=      5-min Rain = 0
KHES 252040Z 15007KT 35/03 A2997 RMK A01 T03480031  RH  014%=      5-min Rain = 0
KHES 252045Z 17004KT 35/02 A2997 RMK A01 T03500022  RH  013%=      5-min Rain = 0
KHES 252050Z 23006G12KT 35/02 A2997 RMK A01 T03480017  RH  013%=      5-min Rain = 0
KHES 252055Z 16010G17KT 36/02 A2996 RMK A01 T03550023  RH  013%=      5-min Rain = 0
KHES 252100Z 17012G20KT 35/03 A2996 RMK A01 T03490028  RH  014%=      5-min Rain = 0
KHES 252105Z 16009G15KT 34/02 A2996 RMK A01 T03420024  RH  014%=      5-min Rain = 0
KHES 252110Z 18010G16KT 35/03 A2996 RMK A01 T03460031  RH  014%=      5-min Rain = 0
KHES 252115Z 19012KT 34/02 A2996 RMK A01 T03390021  RH  014%=      5-min Rain = 0
KHES 252120Z 20012G17KT 34/02 A2996 RMK A01 T03410019  RH  013%=      5-min Rain = 0
KHES 252125Z 21011G17KT 36/02 A2996 RMK A01 T03550018  RH  012%=      5-min Rain = 0
KHES 252130Z 19009KT 36/02 A2995 RMK A01 T03580019  RH  012%=      5-min Rain = 0
KHES 252135Z 19008G14KT 36/02 A2995 RMK A01 T03570022  RH  012%=      5-min Rain = 0
KHES 252140Z 18012KT 36/02 A2995 RMK A01 T03560024  RH  013%=      5-min Rain = 0
KHES 252145Z 18010G15KT 35/03 A2995 RMK A01 T03540032  RH  014%=      5-min Rain = 0
KHES 252150Z 17009KT 35/03 A2995 RMK A01 T03490026  RH  013%=      5-min Rain = 0
KHES 252155Z 19014G23KT 36/03 A2995 RMK A01 T03550025  RH  013%=      5-min Rain = 0
KHES 252200Z 19014G20KT 36/02 A2995 RMK A01 T03560020  RH  012%=      5-min Rain = 0
KHES 252205Z 19013G18KT 36/02 A2995 RMK A01 T03560017  RH  012%=      5-min Rain = 0
KHES 252210Z 17010KT 35/02 A2995 RMK A01 T03540019  RH  012%=      5-min Rain = 0
KHES 252215Z 19012G19KT 35/02 A2995 RMK A01 T03540017  RH  012%=      5-min Rain = 0
KHES 252220Z 20010KT 35/01 A2995 RMK A01 T03470010  RH  012%=      5-min Rain = 0
KHES 252225Z 23009KT 35/01 A2995 RMK A01 T03520006  RH  011%=      5-min Rain = 0
KHES 252230Z 19010G16KT 35/01 A2995 RMK A01 T03520011  RH  012%=      5-min Rain = 0
KHES 252235Z 20012G17KT 35/01 A2995 RMK A01 T03530013  RH  012%=      5-min Rain = 0
KHES 252240Z 21012KT 35/01 A2995 RMK A01 T03540014  RH  012%=      5-min Rain = 0
KHES 252245Z 21011G16KT 35/01 A2995 RMK A01 T03500008  RH  012%=      5-min Rain = 0
KHES 252250Z 23008KT 35/01 A2995 RMK A01 T03540013  RH  012%=      5-min Rain = 0
KHES 252255Z 25009G14KT 36/01 A2994 RMK A01 T03550005  RH  011%=      5-min Rain = 0
KHES 252300Z 20007KT 35/01 A2994 RMK A01 T03510012  RH  012%=      5-min Rain = 0
KHES 252305Z 21008G16KT 35/01 A2994 RMK A01 T03500011  RH  012%=      5-min Rain = 0
KHES 252310Z 21007KT 35/01 A2994 RMK A01 T03490006  RH  012%=      5-min Rain = 0
KHES 252315Z 18008KT 35/02 A2994 RMK A01 T03500016  RH  012%=      5-min Rain = 0
KHES 252320Z 19008KT 35/01 A2994 RMK A01 T03480014  RH  012%=      5-min Rain = 0
KHES 252325Z 18010KT 35/02 A2993 RMK A01 T03460021  RH  013%=      5-min Rain = 0
KHES 252330Z 17008KT 35/01 A2993 RMK A01 T03460014  RH  012%=      5-min Rain = 0
KHES 252335Z 19009G16KT 35/02 A2993 RMK A01 T03460019  RH  013%=      5-min Rain = 0
KHES 252340Z 18010G15KT 34/02 A2992 RMK A01 T03430021  RH  013%=      5-min Rain = 0
KHES 252345Z 16007KT 34/03 A2992 RMK A01 T03440028  RH  014%=      5-min Rain = 0
KHES 252350Z 13007KT 34/03 A2992 RMK A01 T03430030  RH  014%=      5-min Rain = 0
KHES 252355Z 15006G11KT 34/03 A2993 RMK A01 T03430034  RH  015%=      5-min Rain = 0
KHES 260000Z 15010KT 34/03 A2993 RMK A01 T03430030  RH  014%=      5-min Rain = 0
KHES 260005Z 15010KT 34/03 A2993 RMK A01 T03410026  RH  014%=      5-min Rain = 0
KHES 260010Z 16009KT 34/03 A2993 RMK A01 T03410032  RH  015%=      5-min Rain = 0
KHES 260015Z 13009G14KT 34/03 A2994 RMK A01 T03400034  RH  015%=      5-min Rain = 0
KHES 260020Z 09016G27KT 31/06 A2995 RMK A01 T03120062  RH  022%=      5-min Rain = 0
KHES 260025Z 08016G25KT 28/09 A2994 RMK A01 T02800088  RH  031%=      5-min Rain = 0
KHES 260030Z 07017G23KT 27/09 A2994 RMK A01 T02740089  RH  032%=      5-min Rain = 0
KHES 260035Z 06018KT 28/09 A2995 RMK A01 T02750090  RH  032%=      5-min Rain = 0
KHES 260040Z 07017G23KT 27/09 A2995 RMK A01 T02730094  RH  034%=      5-min Rain = 0
KHES 260045Z 09020G26KT 27/10 A2996 RMK A01 T02670102  RH  037%=      5-min Rain = 0
KHES 260050Z 10016G21KT 25/11 A2996 RMK A01 T02540113  RH  043%=      5-min Rain = 0
KHES 260055Z 08019G27KT 25/12 A2997 RMK A01 T02530116  RH  044%=      5-min Rain = 0
KHES 260100Z 09019G29KT 25/12 A2997 RMK A01 T02490121  RH  046%=      5-min Rain = 0
KHES 260105Z 09019G27KT 24/13 A2998 RMK A01 T02410126  RH  051%=      5-min Rain = 0
KHES 260110Z 09018G28KT 23/13 A2999 RMK A01 T02310131  RH  056%=      5-min Rain = 0
KHES 260115Z 09019G26KT 22/13 A2999 RMK A01 T02230133  RH  059%=      5-min Rain = 0
KHES 260120Z 09017G23KT 22/13 A30 RMK A01 T02230133  RH  059%=      5-min Rain = 0
KHES 260125Z 10015G21KT 23/13 A30 RMK A01 T02270133  RH  058%=      5-min Rain = 0
KHES 260130Z 10014G20KT 23/13 A30 RMK A01 T02320133  RH  056%=      5-min Rain = 0
KHES 260135Z 10017G25KT 24/13 A30 RMK A01 T02350133  RH  055%=      5-min Rain = 0
KHES 260140Z 10014G21KT 23/13 A3001 RMK A01 T02330134  RH  056%=      5-min Rain = 0
KHES 260145Z 10017G23KT 23/13 A3001 RMK A01 T02300129  RH  055%=      5-min Rain = 0
KHES 260150Z 10016G24KT 23/12 A3002 RMK A01 T02270123  RH  054%=      5-min Rain = 0
KHES 260155Z 10017G26KT 22/12 A3002 RMK A01 T02240115  RH  052%=      5-min Rain = 0
KHES 260200Z 10017G25KT 22/11 A3003 RMK A01 T02210109  RH  051%=      5-min Rain = 0
KHES 260205Z 09019G26KT 22/11 A3003 RMK A01 T02170106  RH  051%=      5-min Rain = 0
KHES 260210Z 09018G25KT 22/10 A3003 RMK A01 T02150104  RH  051%=      5-min Rain = 0
KHES 260215Z 10016G25KT 21/10 A3003 RMK A01 T02130103  RH  051%=      5-min Rain = 0
KHES 260220Z 10018G27KT 21/11 A3003 RMK A01 T02120106  RH  053%=      5-min Rain = 0
KHES 260225Z 10016G22KT 21/11 A3004 RMK A01 T02110108  RH  054%=      5-min Rain = 0
KHES 260230Z 10017KT 21/11 A3004 RMK A01 T02100109  RH  054%=      5-min Rain = 0
KHES 260235Z 10015G23KT 21/11 A3004 RMK A01 T02090110  RH  055%=      5-min Rain = 0
KHES 260240Z 10016G24KT 21/11 A3004 RMK A01 T02090111  RH  055%=      5-min Rain = 0
KHES 260245Z 10013G21KT 21/11 A3004 RMK A01 T02090111  RH  055%=      5-min Rain = 0
KHES 260250Z 10010G20KT 21/11 A3005 RMK A01 T02090110  RH  055%=      5-min Rain = 0
KHES 260255Z 11012G18KT 21/11 A3005 RMK A01 T02110108  RH  054%=      5-min Rain = 0
KHES 260300Z 11012G19KT 21/11 A3005 RMK A01 T02120106  RH  053%=      5-min Rain = 0
KHES 260305Z 11015G20KT 21/10 A3005 RMK A01 T02140104  RH  051%=      5-min Rain = 0
KHES 260310Z 11014G23KT 22/11 A3006 RMK A01 T02160105  RH  051%=      5-min Rain = 0
KHES 260315Z 11016G24KT 22/11 A3006 RMK A01 T02170111  RH  053%=      5-min Rain = 0
KHES 260320Z 11017G23KT 22/12 A3006 RMK A01 T02190117  RH  054%=      5-min Rain = 0
KHES 260325Z 12015G22KT 22/12 A3006 RMK A01 T02190119  RH  055%=      5-min Rain = 0
KHES 260330Z 11015G27KT 22/12 A3007 RMK A01 T02200121  RH  056%=      5-min Rain = 0
KHES 260335Z 12015G20KT 22/12 A3007 RMK A01 T02210124  RH  056%=      5-min Rain = 0
KHES 260340Z 12014G22KT 22/13 A3007 RMK A01 T02230125  RH  056%=      5-min Rain = 0
KHES 260345Z 12014G23KT 23/13 A3008 RMK A01 T02250125  RH  055%=      5-min Rain = 0
KHES 260350Z 12015G21KT 23/12 A3008 RMK A01 T02260122  RH  054%=      5-min Rain = 0
KHES 260355Z 12015G23KT 23/12 A3008 RMK A01 T02280122  RH  053%=      5-min Rain = 0
KHES 260400Z 12014G20KT 23/12 A3009 RMK A01 T02280122  RH  053%=      5-min Rain = 0
KHES 260405Z 12014G21KT 23/12 A3009 RMK A01 T02280122  RH  053%=      5-min Rain = 0
KHES 260410Z 12016G24KT 23/12 A3009 RMK A01 T02300121  RH  052%=      5-min Rain = 0
KHES 260415Z 12015G24KT 23/12 A3009 RMK A01 T02310121  RH  052%=      5-min Rain = 0
KHES 260420Z 12017G26KT 23/12 A3009 RMK A01 T02320122  RH  052%=      5-min Rain = 0
KHES 260425Z 12015G21KT 23/12 A3009 RMK A01 T02320122  RH  052%=      5-min Rain = 0
KHES 260430Z 12016G22KT 23/12 A301 RMK A01 T02310124  RH  053%=      5-min Rain = 0
KHES 260435Z 12017G27KT 23/13 A301 RMK A01 T02310125  RH  053%=      5-min Rain = 0
KHES 260440Z 12014G23KT 23/13 A3011 RMK A01 T02310125  RH  053%=      5-min Rain = 0
KHES 260445Z 13013G18KT 23/13 A3011 RMK A01 T02290125  RH  054%=      5-min Rain = 0
KHES 260450Z 12013G19KT 23/13 A3011 RMK A01 T02280127  RH  055%=      5-min Rain = 0
KHES 260455Z 12011G18KT 23/13 A3011 RMK A01 T02270127  RH  056%=      5-min Rain = 0

Page generated in 0.0094 seconds.